Track Никольский Артем

Time Latitude Longitude Accuracy (66% radius in meters) Altitude (meters) Speed (km/hour) Bearing (degrees) Battery (%) GPS flag
08:54:28 60.370987 29.556351 6 79.922516834974 0.27670526504517 177.70347595215 90 1 delete
08:54:19 60.371000 29.556363 6 80.354572786729 0.15150815248489 328.51434326172 90 1 delete
08:54:07 60.371005 29.556368 4 80.651587357289 0.010574008338153 328.51434326172 90 1 delete
08:53:55 60.370976 29.556303 4 80.587587622516 0.021118825301528 328.51434326172 90 1 delete
08:53:43 60.371031 29.556299 4 80.379091818489 0.026444811373949 328.51434326172 90 1 delete
08:53:38 60.371001 29.556272 6 80.291631588341 0.036298554390669 328.51434326172 90 1 delete
08:53:31 60.370952 29.556271 4 80.326999270598 0.01054760441184 328.51434326172 90 1 delete
08:53:23 60.370917 29.556295 8 80.647463094314 0.01219954714179 328.51434326172 90 1 delete
08:53:14 60.370904 29.556319 6 80.798671529042 0.038965046405792 328.51434326172 90 1 delete
08:53:11 60.370917 29.556303 6 80.870750557013 0.052083060145378 328.51434326172 90 1 delete
08:52:59 60.370946 29.556239 8 81.076195900406 0.010355786420405 328.51434326172 90 1 delete
08:52:55 60.370937 29.556247 6 81.042104069079 0.06662730127573 328.51434326172 90 1 delete
08:52:47 60.370926 29.556324 6 81.088537655766 0.036912772804499 328.51434326172 90 1 delete
08:52:43 60.370926 29.556335 8 81.152072874545 0.0064028748311102 328.51434326172 90 1 delete
08:52:35 60.370933 29.556362 6 81.373886136457 0.012776589021087 328.51434326172 90 1 delete
08:52:26 60.370935 29.556402 6 81.494638329501 0.033461332321167 328.51434326172 90 1 delete
08:52:14 60.370956 29.556358 6 81.453987036573 0.026306470856071 328.51434326172 90 1 delete
08:52:11 60.370970 29.556354 4 81.49943568809 0.039904184639454 328.51434326172 90 1 delete
08:52:02 60.370975 29.556259 4 81.67987757394 0.021344380453229 328.51434326172 90 1 delete
08:51:50 60.371020 29.556261 4 81.790271529248 0.0092240776866674 328.51434326172 90 1 delete
08:51:47 60.371021 29.556258 4 81.80137527088 0.029112184420228 328.51434326172 90 1 delete
08:51:38 60.371040 29.556288 6 81.640590642059 0.010901296511292 328.51434326172 90 1 delete
08:51:26 60.371046 29.556323 4 81.466824324079 0.011889978311956 328.51434326172 90 1 delete
08:51:19 60.371030 29.556359 4 81.384313892807 0.034998819231987 328.51434326172 90 1 delete
08:51:16 60.371023 29.556368 4 81.360031175809 0.0094911213964224 328.51434326172 90 1 delete
08:51:04 60.370994 29.556416 4 81.494971488494 0.023918177932501 328.51434326172 90 1 delete
08:50:59 60.370984 29.556367 6 81.481899026195 0.022930482402444 328.51434326172 90 1 delete
08:50:52 60.371004 29.556358 4 81.592562275531 0.016108751296997 328.51434326172 90 1 delete
08:50:40 60.371007 29.556290 6 81.532794739588 0.021612491458654 328.51434326172 90 1 delete
08:50:38 60.371005 29.556280 6 81.48836964627 0.026290528476238 328.51434326172 90 1 delete
08:50:28 60.371022 29.556312 4 81.433327425184 0.019563486799598 328.51434326172 90 1 delete
08:50:16 60.371029 29.556363 6 81.245021178597 0.019456343725324 328.51434326172 90 1 delete
08:50:11 60.371027 29.556364 6 81.199600995867 0.0092221489176154 328.51434326172 90 1 delete
08:50:04 60.371009 29.556360 6 81.238221798588 0.014524169266224 328.51434326172 90 1 delete
08:49:55 60.370972 29.556376 6 81.30573062176 0.012927629984915 328.51434326172 90 1 delete
08:49:43 60.370954 29.556366 8 81.427111551733 0.010763886384666 328.51434326172 90 1 delete
08:49:31 60.370982 29.556373 4 81.687163748649 0.018555320799351 328.51434326172 90 1 delete
08:49:19 60.371008 29.556342 6 81.704433213578 0.012466268613935 328.51434326172 90 1 delete
08:49:07 60.370972 29.556323 6 81.280966126207 0.01263400260359 328.51434326172 90 1 delete
08:48:59 60.370970 29.556376 8 81.244738748383 0.028474148362875 328.51434326172 90 1 delete
08:48:47 60.370979 29.556411 6 81.481365019597 0.052777085453272 328.51434326172 90 1 delete
08:48:35 60.370989 29.556349 6 82.011160602005 0.0094689801335335 328.51434326172 90 1 delete
08:48:23 60.370976 29.556319 6 82.139933901298 0.020494531840086 328.51434326172 90 1 delete
08:48:14 60.370976 29.556333 6 82.428638531361 0.029395783320069 328.51434326172 90 1 delete
08:48:11 60.371001 29.556345 6 82.568595380308 0.017596939578652 328.51434326172 90 1 delete
08:47:59 60.371055 29.556365 4 82.911633126065 0.003362437011674 328.51434326172 90 1 delete
08:47:47 60.371042 29.556380 6 83.000899055321 0.016862260177732 328.51434326172 90 1 delete
08:47:35 60.371037 29.556359 6 83.133855889738 0.020874358713627 328.51434326172 90 1 delete
08:47:26 60.371034 29.556324 6 83.238033998501 0.066518522799015 328.51434326172 90 1 delete
08:47:14 60.371036 29.556330 4 83.341055193253 0.013854402117431 328.51434326172 90 1 delete